Time;durP1;ratioP1;P1;durP2;ratioP2;P2;SDS_P1;SDS_P2;PMS_P1;PMS_P2;Temp;Humidity;BMP_temperature;BMP_pressure;BME280_temperature;BME280_humidity;BME280_pressure;Samples;Min_cycle;Max_cycle;Signal;HPM_P1;HPM_P2
2022/08/31 00:05:47;;;;;;;1.63;0.40;;;16.80;99.20;;;;;;5111585;28;20478;-81
2022/08/31 00:08:34;;;;;;;2.53;0.85;;;16.80;99.20;;;;;;5111134;28;20055;-82
2022/08/31 00:11:27;;;;;;;2.88;0.47;;;16.80;99.10;;;;;;5110993;28;20044;-82
2022/08/31 00:14:13;;;;;;;3.03;0.60;;;16.70;99.00;;;;;;5091762;28;20067;-85
2022/08/31 00:16:59;;;;;;;2.08;0.40;;;16.60;98.90;;;;;;5110445;28;20126;-81
2022/08/31 00:19:45;;;;;;;1.20;0.30;;;16.60;99.00;;;;;;5109540;28;20035;-81
2022/08/31 00:22:31;;;;;;;0.40;0.20;;;16.50;98.90;;;;;;5079894;28;20047;-81
2022/08/31 00:25:18;;;;;;;1.95;0.40;;;16.50;99.00;;;;;;5110424;28;20052;-87
2022/08/31 00:28:05;;;;;;;1.25;0.45;;;16.40;99.00;;;;;;5091578;28;20048;-83
2022/08/31 00:30:51;;;;;;;1.55;0.30;;;16.40;99.00;;;;;;5109735;28;20059;-85
2022/08/31 00:33:38;;;;;;;1.35;0.30;;;16.30;99.00;;;;;;5112125;28;20051;-84
2022/08/31 00:36:26;;;;;;;1.63;0.30;;;16.20;99.00;;;;;;5081397;28;20055;-81
2022/08/31 00:39:13;;;;;;;1.50;0.25;;;16.20;99.10;;;;;;5114341;28;20055;-81
2022/08/31 00:41:59;;;;;;;2.65;0.57;;;16.10;99.30;;;;;;5112691;28;20093;-81
2022/08/31 00:44:45;;;;;;;1.27;0.40;;;16.10;99.20;;;;;;5112593;28;20048;-83
2022/08/31 00:47:32;;;;;;;2.05;0.20;;;16.10;99.50;;;;;;5112740;28;20517;-81
2022/08/31 00:50:19;;;;;;;1.08;0.30;;;16.00;99.60;;;;;;5114829;28;20106;-81
2022/08/31 00:53:06;;;;;;;3.08;0.40;;;15.90;99.70;;;;;;5116193;28;20083;-82
2022/08/31 00:55:52;;;;;;;2.35;0.40;;;15.90;99.90;;;;;;5113330;28;20134;-81
2022/08/31 00:58:39;;;;;;;4.03;0.40;;;15.90;99.90;;;;;;5080918;28;20486;-82
2022/08/31 01:01:26;;;;;;;2.05;0.50;;;15.80;99.90;;;;;;5113216;28;20509;-82
2022/08/31 01:04:15;;;;;;;2.83;0.47;;;15.80;99.90;;;;;;5097678;28;20522;-81
2022/08/31 01:07:05;;;;;;;3.05;0.60;;;15.70;99.90;;;;;;5097762;28;20089;-82
2022/08/31 01:09:51;;;;;;;1.85;0.30;;;15.70;99.90;;;;;;5112725;28;20048;-85
2022/08/31 01:12:37;;;;;;;3.53;0.70;;;15.70;99.90;;;;;;5113571;28;20082;-82
2022/08/31 01:15:25;;;;;;;1.83;0.40;;;15.60;99.90;;;;;;5112782;28;20408;-82
2022/08/31 01:18:12;;;;;;;0.85;0.30;;;15.60;99.90;;;;;;5113803;28;20051;-83
2022/08/31 01:21:21;;;;;;;2.20;0.77;;;15.60;99.90;;;;;;5094431;28;20058;-82
2022/08/31 01:24:08;;;;;;;2.22;0.40;;;15.50;99.90;;;;;;5112955;28;20088;-87
2022/08/31 01:27:02;;;;;;;0.47;0.28;;;15.50;99.90;;;;;;5112168;28;20042;-82
2022/08/31 01:29:49;;;;;;;1.83;0.20;;;15.50;99.90;;;;;;5094398;28;20051;-88
2022/08/31 01:32:36;;;;;;;4.60;0.45;;;15.40;99.90;;;;;;5093896;28;20482;-83
2022/08/31 01:35:23;;;;;;;1.50;0.38;;;15.40;99.90;;;;;;5113231;28;20129;-86
2022/08/31 01:38:09;;;;;;;3.00;0.70;;;15.30;99.90;;;;;;5098399;28;20444;-82
2022/08/31 01:40:59;;;;;;;0.77;0.28;;;15.30;99.90;;;;;;5095043;28;20044;-83
2022/08/31 01:43:45;;;;;;;0.82;0.20;;;15.30;99.90;;;;;;5115019;28;20042;-85
2022/08/31 01:46:31;;;;;;;2.63;0.40;;;15.30;99.90;;;;;;5086918;28;20063;-82
2022/08/31 01:49:20;;;;;;;0.75;0.25;;;15.20;99.90;;;;;;5112181;28;20043;-82
2022/08/31 01:52:06;;;;;;;1.35;0.20;;;15.10;99.90;;;;;;5091132;28;20056;-90
2022/08/31 01:54:52;;;;;;;1.92;0.32;;;15.10;99.90;;;;;;5092383;28;20083;-84
2022/08/31 01:57:38;;;;;;;0.70;0.28;;;15.10;99.90;;;;;;5091320;28;20067;-86
2022/08/31 02:00:27;;;;;;;2.08;0.30;;;15.00;99.90;;;;;;5091103;28;20106;-87
2022/08/31 02:03:13;;;;;;;2.15;0.60;;;15.00;99.90;;;;;;5092292;28;20096;-85
2022/08/31 02:06:09;;;;;;;1.92;0.50;;;15.00;99.90;;;;;;5092093;28;20100;-88
2022/08/31 02:08:56;;;;;;;2.85;0.40;;;14.90;99.90;;;;;;5090483;28;20048;-88
2022/08/31 02:11:42;;;;;;;0.60;0.28;;;14.90;99.90;;;;;;5083131;28;20073;-84
2022/08/31 02:14:28;;;;;;;2.05;0.20;;;14.90;99.90;;;;;;5098515;28;20055;-85
2022/08/31 02:17:15;;;;;;;2.35;0.32;;;14.80;99.90;;;;;;5099072;28;20055;-82
2022/08/31 02:20:02;;;;;;;2.63;0.35;;;14.80;99.90;;;;;;5096412;28;20040;-90
2022/08/31 02:22:48;;;;;;;5.75;0.50;;;14.80;99.90;;;;;;5094530;28;20066;-90
2022/08/31 02:25:35;;;;;;;1.52;0.30;;;14.80;99.90;;;;;;5094045;28;20113;-89
2022/08/31 02:28:22;;;;;;;6.30;0.90;;;14.80;99.90;;;;;;5095239;28;20052;-90
2022/08/31 02:31:08;;;;;;;1.23;0.30;;;14.80;99.90;;;;;;5092149;28;20155;-86
2022/08/31 02:33:54;;;;;;;0.60;0.30;;;14.80;99.90;;;;;;5091709;28;20044;-89
2022/08/31 02:36:40;;;;;;;2.05;0.40;;;14.80;99.90;;;;;;5093027;28;20048;-85
2022/08/31 02:39:27;;;;;;;0.57;0.30;;;14.80;99.90;;;;;;5093598;28;20044;-85
2022/08/31 02:42:13;;;;;;;1.33;0.60;;;14.80;99.90;;;;;;5094403;28;20052;-85
2022/08/31 02:44:59;;;;;;;3.78;0.30;;;14.70;99.90;;;;;;5092523;28;20135;-82
2022/08/31 02:47:45;;;;;;;0.82;0.30;;;14.80;99.90;;;;;;5092602;28;20400;-81
2022/08/31 02:50:32;;;;;;;2.05;0.30;;;14.70;99.90;;;;;;5090538;28;20056;-82
2022/08/31 02:53:21;;;;;;;2.30;0.40;;;14.70;99.90;;;;;;5090920;28;20070;-83
2022/08/31 02:56:08;;;;;;;0.43;0.30;;;14.70;99.90;;;;;;5089396;28;20510;-81
2022/08/31 02:58:54;;;;;;;1.70;0.40;;;14.70;99.90;;;;;;5088476;28;20420;-82
2022/08/31 03:01:40;;;;;;;1.90;0.70;;;14.70;99.90;;;;;;5061633;28;20567;-81
2022/08/31 03:04:28;;;;;;;1.38;0.40;;;14.60;99.90;;;;;;5090349;28;20047;-81
2022/08/31 03:07:14;;;;;;;2.15;0.70;;;14.70;99.90;;;;;;5088826;28;20048;-83
2022/08/31 03:10:01;;;;;;;3.65;0.40;;;14.60;99.90;;;;;;5091235;28;20117;-81
2022/08/31 03:12:48;;;;;;;1.33;0.25;;;14.60;99.90;;;;;;5088904;28;20185;-83
2022/08/31 03:15:34;;;;;;;2.15;0.50;;;14.60;99.90;;;;;;5089773;28;20427;-81
2022/08/31 03:18:21;;;;;;;2.53;0.50;;;14.50;99.90;;;;;;5088146;28;20109;-82
2022/08/31 03:21:07;;;;;;;2.67;0.50;;;14.50;99.90;;;;;;5087017;28;20062;-83
2022/08/31 03:23:53;;;;;;;1.27;0.40;;;14.50;99.90;;;;;;5090335;28;20101;-86
2022/08/31 03:26:40;;;;;;;1.40;0.30;;;14.50;99.90;;;;;;5090796;28;20051;-86
2022/08/31 03:29:26;;;;;;;1.25;0.52;;;14.50;99.90;;;;;;5087758;28;20418;-81
2022/08/31 03:32:13;;;;;;;1.77;0.40;;;14.50;99.90;;;;;;5089793;28;20059;-84
2022/08/31 03:35:00;;;;;;;1.88;0.50;;;14.50;99.90;;;;;;5090744;28;20044;-82
2022/08/31 03:37:46;;;;;;;1.58;0.22;;;14.40;99.90;;;;;;5088503;28;20052;-83
2022/08/31 03:40:32;;;;;;;4.15;0.50;;;14.40;99.90;;;;;;5090392;28;20054;-83
2022/08/31 03:43:20;;;;;;;1.02;0.30;;;14.40;99.90;;;;;;5091541;28;20051;-83
2022/08/31 03:46:06;;;;;;;2.78;0.40;;;14.40;99.90;;;;;;5089109;28;20047;-84
2022/08/31 03:48:53;;;;;;;3.72;0.50;;;14.40;99.90;;;;;;5090459;28;20044;-82
2022/08/31 03:51:39;;;;;;;1.73;0.50;;;14.40;99.90;;;;;;5089167;28;20105;-84
2022/08/31 03:54:25;;;;;;;4.63;0.52;;;14.40;99.90;;;;;;5088985;28;20101;-84
2022/08/31 03:57:12;;;;;;;2.58;0.55;;;14.40;99.90;;;;;;5089557;28;20093;-83
2022/08/31 03:59:59;;;;;;;1.48;0.40;;;14.30;99.90;;;;;;5090322;28;20054;-82
2022/08/31 04:02:45;;;;;;;2.40;0.50;;;14.30;99.90;;;;;;5088000;28;20055;-85
2022/08/31 04:05:34;;;;;;;2.15;0.60;;;14.30;99.90;;;;;;5089798;28;20052;-84
2022/08/31 04:08:21;;;;;;;1.58;0.47;;;14.30;99.90;;;;;;5091352;28;20441;-82
2022/08/31 04:11:13;;;;;;;1.48;0.47;;;14.30;99.90;;;;;;5094159;28;20130;-82
2022/08/31 04:13:59;;;;;;;1.40;0.50;;;14.30;99.90;;;;;;5094176;28;20040;-79
2022/08/31 04:16:45;;;;;;;1.80;0.45;;;14.30;99.90;;;;;;5093106;28;20131;-83
2022/08/31 04:19:31;;;;;;;3.40;0.50;;;14.30;99.90;;;;;;5094003;28;20056;-85
2022/08/31 04:22:17;;;;;;;4.93;0.70;;;14.30;99.90;;;;;;5093397;28;20079;-84
2022/08/31 04:25:04;;;;;;;3.58;0.73;;;14.30;99.90;;;;;;5094542;28;20052;-84
2022/08/31 04:27:53;;;;;;;1.38;0.68;;;14.30;99.90;;;;;;5093807;28;20048;-84
2022/08/31 04:30:41;;;;;;;3.40;0.50;;;14.40;99.90;;;;;;5092285;28;20047;-83
2022/08/31 04:33:27;;;;;;;2.08;0.50;;;14.40;99.90;;;;;;5094173;28;20052;-81
2022/08/31 04:36:16;;;;;;;3.10;0.52;;;14.30;99.90;;;;;;5095071;28;20063;-83
2022/08/31 04:39:04;;;;;;;1.88;0.50;;;14.30;99.90;;;;;;5094948;28;20053;-83
2022/08/31 04:41:50;;;;;;;1.90;0.57;;;14.20;99.90;;;;;;5092823;28;20048;-84
2022/08/31 04:44:37;;;;;;;3.47;0.80;;;14.20;99.90;;;;;;5091509;28;20060;-82
2022/08/31 04:47:23;;;;;;;1.92;0.60;;;14.20;99.90;;;;;;5091674;28;20052;-82
2022/08/31 04:50:11;;;;;;;1.48;0.50;;;14.20;99.90;;;;;;5076917;28;20500;-83
2022/08/31 04:52:58;;;;;;;4.20;0.70;;;14.20;99.90;;;;;;5078150;28;20052;-82
2022/08/31 04:55:44;;;;;;;2.85;0.60;;;14.20;99.90;;;;;;5093030;28;20407;-83
2022/08/31 04:58:30;;;;;;;1.70;0.45;;;14.20;99.90;;;;;;5092644;28;20051;-84
2022/08/31 05:01:19;;;;;;;4.60;0.60;;;14.20;99.90;;;;;;5074912;28;20060;-83
2022/08/31 05:04:07;;;;;;;3.83;0.80;;;14.20;99.90;;;;;;5093454;28;20069;-83
2022/08/31 05:06:53;;;;;;;3.70;0.70;;;14.20;99.90;;;;;;5095413;28;20064;-84
2022/08/31 05:09:39;;;;;;;1.20;0.60;;;14.20;99.90;;;;;;5077950;28;20044;-82
2022/08/31 05:12:25;;;;;;;1.25;0.60;;;14.20;99.90;;;;;;5067869;28;20083;-82
2022/08/31 05:15:11;;;;;;;3.45;0.60;;;14.20;99.90;;;;;;5092607;28;20048;-82
2022/08/31 05:17:58;;;;;;;3.72;0.60;;;14.20;99.90;;;;;;5073745;28;20059;-82
2022/08/31 05:20:45;;;;;;;1.65;0.50;;;14.20;99.90;;;;;;5090950;28;20047;-81
2022/08/31 05:23:34;;;;;;;3.42;0.68;;;14.30;99.90;;;;;;5093639;28;20101;-81
2022/08/31 05:26:24;;;;;;;4.15;0.93;;;14.30;99.90;;;;;;5073946;28;20062;-81
2022/08/31 05:29:13;;;;;;;2.30;0.57;;;14.30;99.90;;;;;;5061262;28;20083;-81
2022/08/31 05:31:59;;;;;;;4.70;1.40;;;14.40;99.90;;;;;;5075849;28;20062;-79
2022/08/31 05:34:45;;;;;;;2.13;0.75;;;14.50;99.90;;;;;;5075259;28;20048;-82
2022/08/31 05:37:31;;;;;;;4.35;0.80;;;14.60;99.90;;;;;;5093316;28;20055;-82
2022/08/31 05:40:18;;;;;;;2.65;0.70;;;14.60;99.90;;;;;;5085013;28;20143;-81
2022/08/31 05:43:04;;;;;;;1.83;0.60;;;14.70;99.90;;;;;;5092091;28;20047;-82
2022/08/31 05:45:50;;;;;;;4.95;0.90;;;14.80;99.90;;;;;;5090782;28;20105;-81
2022/08/31 05:48:36;;;;;;;3.60;0.73;;;14.90;99.90;;;;;;5077108;28;20415;-80
2022/08/31 05:51:23;;;;;;;2.85;0.70;;;15.00;99.90;;;;;;5062659;28;20149;-81
2022/08/31 05:54:09;;;;;;;1.65;0.60;;;15.00;99.90;;;;;;5091226;28;20055;-81
2022/08/31 05:56:55;;;;;;;2.63;0.80;;;15.10;99.90;;;;;;5074316;28;20044;-81
2022/08/31 05:59:42;;;;;;;1.95;0.75;;;15.20;99.90;;;;;;5091637;28;20052;-83
2022/08/31 06:02:28;;;;;;;3.50;0.68;;;15.30;99.90;;;;;;5073946;28;20145;-81
2022/08/31 06:05:14;;;;;;;1.88;0.63;;;15.40;99.90;;;;;;5092049;28;20460;-81
2022/08/31 06:08:00;;;;;;;2.35;0.63;;;15.50;99.90;;;;;;5077261;28;20044;-82
2022/08/31 06:10:47;;;;;;;1.77;0.60;;;15.70;99.90;;;;;;5090785;28;20044;-79
2022/08/31 06:13:34;;;;;;;1.75;0.52;;;15.70;99.90;;;;;;5074373;28;20043;-81
2022/08/31 06:16:21;;;;;;;3.83;0.65;;;15.80;99.90;;;;;;5072884;28;20054;-82
2022/08/31 06:19:08;;;;;;;1.85;0.63;;;16.00;99.90;;;;;;5074983;28;20051;-81
2022/08/31 06:21:54;;;;;;;3.25;0.90;;;16.10;99.90;;;;;;5074019;28;20056;-81
2022/08/31 06:24:41;;;;;;;1.90;0.50;;;16.20;99.90;;;;;;5078509;28;20047;-82
2022/08/31 06:27:28;;;;;;;3.75;0.70;;;16.30;99.90;;;;;;5077373;28;20056;-83
2022/08/31 06:30:19;;;;;;;2.60;0.80;;;16.40;99.90;;;;;;5073007;28;20139;-80
2022/08/31 06:33:06;;;;;;;3.08;0.88;;;16.50;99.90;;;;;;5090937;28;20062;-80
2022/08/31 06:35:52;;;;;;;5.53;0.77;;;16.70;99.90;;;;;;5090544;28;20076;-90
2022/08/31 06:38:39;;;;;;;2.67;0.70;;;16.90;99.90;;;;;;5073030;28;20129;-81
2022/08/31 06:41:28;;;;;;;2.70;0.70;;;17.00;99.90;;;;;;5090733;28;20570;-80
2022/08/31 06:44:15;;;;;;;2.78;0.70;;;17.20;99.90;;;;;;5090645;28;20059;-81
2022/08/31 06:47:01;;;;;;;2.05;0.40;;;17.40;99.90;;;;;;5090692;28;20491;-80
2022/08/31 06:49:48;;;;;;;2.42;0.60;;;17.50;99.90;;;;;;5089961;28;20060;-83
2022/08/31 06:52:34;;;;;;;1.55;0.60;;;17.70;99.90;;;;;;5074982;28;20527;-80
2022/08/31 06:55:21;;;;;;;2.65;0.65;;;17.80;99.90;;;;;;5073907;28;20158;-80
2022/08/31 06:58:07;;;;;;;1.48;0.50;;;18.00;99.90;;;;;;5090938;28;20069;-80
2022/08/31 07:00:57;;;;;;;3.13;0.60;;;18.00;99.90;;;;;;5073442;28;20109;-81
2022/08/31 07:03:45;;;;;;;2.85;0.60;;;18.20;99.90;;;;;;5075897;28;20086;-81
2022/08/31 07:06:35;;;;;;;4.05;0.70;;;18.30;99.90;;;;;;5090813;28;20064;-81
2022/08/31 07:09:21;;;;;;;1.23;0.50;;;18.50;99.90;;;;;;5089540;28;20130;-83
2022/08/31 07:12:08;;;;;;;2.08;0.60;;;18.50;99.90;;;;;;5090495;28;20060;-82
2022/08/31 07:14:54;;;;;;;2.20;0.50;;;18.80;99.90;;;;;;5077108;28;20139;-81
2022/08/31 07:17:41;;;;;;;3.53;0.47;;;18.90;99.90;;;;;;5090851;28;20051;-81
2022/08/31 07:20:27;;;;;;;1.88;0.65;;;19.00;99.90;;;;;;5077982;28;20044;-83
2022/08/31 07:23:13;;;;;;;4.65;0.82;;;19.10;99.90;;;;;;5076325;28;20095;-83
2022/08/31 07:26:12;;;;;;;2.28;0.57;;;19.20;99.90;;;;;;5089443;28;20198;-81
2022/08/31 07:29:00;;;;;;;1.73;0.47;;;19.30;99.90;;;;;;5090457;28;20544;-82
2022/08/31 07:31:49;;;;;;;1.27;0.43;;;19.50;99.90;;;;;;5072070;28;20052;-82
2022/08/31 07:34:36;;;;;;;2.40;0.80;;;19.60;99.90;;;;;;5059851;28;20054;-83
2022/08/31 07:43:34;;;;;;;2.27;0.53;;;20.10;99.90;;;;;;5090109;28;20502;-85
2022/08/31 07:46:20;;;;;;;2.80;0.68;;;20.20;99.90;;;;;;5092425;28;20297;-84
2022/08/31 07:49:11;;;;;;;3.15;0.60;;;20.20;99.90;;;;;;5090000;28;20036;-82
2022/08/31 07:51:58;;;;;;;2.55;0.75;;;20.40;99.90;;;;;;5090488;28;20152;-81
2022/08/31 07:54:46;;;;;;;2.33;0.57;;;20.40;99.90;;;;;;5091847;28;20055;-83
2022/08/31 07:57:44;;;;;;;4.93;0.52;;;20.50;99.90;;;;;;5078503;28;20529;-84
2022/08/31 08:00:34;;;;;;;2.78;0.40;;;20.60;99.90;;;;;;5080995;28;20051;-81
2022/08/31 08:03:21;;;;;;;2.85;0.65;;;20.60;99.90;;;;;;5097707;28;20130;-90
2022/08/31 08:06:11;;;;;;;5.30;0.40;;;20.60;99.90;;;;;;5062991;28;20168;-92
2022/08/31 08:09:05;;;;;;;3.42;0.50;;;20.90;99.90;;;;;;5094290;28;20096;-85
2022/08/31 08:11:56;;;;;;;1.73;0.40;;;20.90;99.90;;;;;;5094265;28;20059;-82
2022/08/31 08:14:43;;;;;;;2.05;0.70;;;21.00;99.50;;;;;;5091055;28;20047;-85
2022/08/31 08:17:29;;;;;;;2.65;0.52;;;21.20;99.10;;;;;;5090275;28;20109;-83
2022/08/31 08:20:15;;;;;;;2.72;0.80;;;21.40;99.00;;;;;;5075844;28;20415;-82
2022/08/31 08:23:02;;;;;;;2.00;0.52;;;21.30;97.80;;;;;;5090425;28;20052;-87
2022/08/31 08:25:50;;;;;;;2.58;0.50;;;21.30;97.50;;;;;;5091791;28;20094;-88
2022/08/31 08:28:36;;;;;;;2.17;0.40;;;21.40;97.60;;;;;;5068630;28;20044;-85
2022/08/31 08:31:23;;;;;;;1.77;0.47;;;21.50;97.30;;;;;;5045711;28;20515;-88
2022/08/31 08:34:13;;;;;;;1.70;0.52;;;21.60;97.30;;;;;;5073665;28;20385;-85
2022/08/31 08:37:00;;;;;;;2.08;0.70;;;21.80;97.10;;;;;;5088938;28;20040;-79
2022/08/31 08:39:50;;;;;;;2.22;0.50;;;21.90;96.80;;;;;;5092104;28;20040;-85
2022/08/31 08:42:37;;;;;;;2.10;0.55;;;21.90;96.30;;;;;;5090302;28;20063;-87
2022/08/31 08:45:23;;;;;;;3.28;0.57;;;22.00;96.10;;;;;;5076549;28;20098;-84
2022/08/31 08:48:13;;;;;;;1.70;0.50;;;22.10;96.30;;;;;;5090020;28;20058;-79
2022/08/31 08:51:03;;;;;;;1.98;0.40;;;22.20;95.70;;;;;;5074149;28;20381;-84
2022/08/31 08:53:57;;;;;;;5.47;1.25;;;22.30;95.80;;;;;;5089579;28;20072;-82
2022/08/31 08:56:47;;;;;;;2.90;0.70;;;22.50;95.70;;;;;;5081480;28;20535;-83
2022/08/31 08:59:34;;;;;;;1.17;0.38;;;22.70;95.30;;;;;;5095891;28;20104;-80
2022/08/31 09:02:29;;;;;;;6.03;0.50;;;22.90;95.00;;;;;;5074966;28;20044;-81
2022/08/31 09:05:50;;;;;;;1.50;0.40;;;23.00;94.80;;;;;;5074703;28;20071;-90
2022/08/31 09:08:49;;;;;;;1.83;0.50;;;23.00;94.80;;;;;;5094253;28;20044;-84
2022/08/31 09:11:57;;;;;;;1.77;0.50;;;23.20;94.80;;;;;;5077215;28;20048;-83
2022/08/31 09:15:08;;;;;;;2.67;0.38;;;23.30;93.90;;;;;;5075247;28;20056;-84
2022/08/31 09:18:06;;;;;;;2.85;0.70;;;23.40;93.90;;;;;;5073829;28;20048;-80
2022/08/31 09:21:20;;;;;;;2.75;0.40;;;23.50;93.70;;;;;;5091643;28;20537;-82
2022/08/31 09:24:10;;;;;;;4.72;0.80;;;23.40;94.10;;;;;;5074094;28;20048;-83
2022/08/31 09:27:19;;;;;;;2.67;0.52;;;23.50;93.90;;;;;;5092049;28;20120;-82
2022/08/31 09:30:06;;;;;;;3.97;0.60;;;23.50;93.40;;;;;;5092356;28;20373;-82
2022/08/31 09:32:55;;;;;;;1.58;0.50;;;23.60;93.60;;;;;;5092240;28;20048;-83
2022/08/31 09:35:43;;;;;;;2.45;0.50;;;23.80;93.40;;;;;;5076237;28;20047;-80
2022/08/31 09:38:38;;;;;;;1.75;0.40;;;23.80;92.90;;;;;;5074653;28;20059;-83
2022/08/31 09:41:28;;;;;;;1.27;0.47;;;23.90;93.00;;;;;;5075647;28;20432;-81
2022/08/31 09:44:20;;;;;;;4.03;0.73;;;24.00;93.10;;;;;;5074145;28;20101;-81
2022/08/31 09:47:47;;;;;;;2.85;0.30;;;24.00;91.40;;;;;;5092465;28;20040;-81
2022/08/31 09:50:43;;;;;;;1.65;0.63;;;24.20;91.50;;;;;;5062285;28;20055;-83
2022/08/31 09:56:51;;;;;;;3.38;0.50;;;24.40;91.10;;;;;;5094712;28;20086;-81
2022/08/31 09:59:47;;;;;;;1.95;0.57;;;24.50;91.30;;;;;;5080476;28;20051;-82
2022/08/31 10:02:36;;;;;;;1.13;0.32;;;24.80;91.20;;;;;;5075587;28;20351;-84
2022/08/31 10:05:31;;;;;;;3.42;0.50;;;25.00;91.10;;;;;;5078796;28;20506;-80
2022/08/31 10:08:32;;;;;;;3.17;1.38;;;25.00;90.30;;;;;;5061877;28;20047;-83
2022/08/31 10:11:20;;;;;;;2.15;0.47;;;25.00;90.00;;;;;;5073606;28;20044;-84
2022/08/31 10:14:25;;;;;;;2.72;0.50;;;25.20;89.00;;;;;;5077698;28;20052;-81
2022/08/31 10:17:51;;;;;;;2.10;0.60;;;25.00;85.20;;;;;;5091474;28;20089;-82
2022/08/31 10:20:45;;;;;;;2.30;0.40;;;25.10;88.10;;;;;;5091698;28;20044;-82
2022/08/31 10:23:41;;;;;;;3.33;0.45;;;25.50;88.90;;;;;;5091745;28;20376;-81
2022/08/31 10:26:47;;;;;;;1.90;0.40;;;25.60;88.30;;;;;;5077403;28;20055;-82
2022/08/31 10:29:59;;;;;;;2.08;0.50;;;25.90;87.10;;;;;;5092805;28;20048;-87
2022/08/31 10:32:56;;;;;;;3.22;0.40;;;26.10;87.30;;;;;;5077655;28;20074;-84
2022/08/31 10:35:57;;;;;;;2.13;0.57;;;26.10;84.10;;;;;;5091146;28;20048;-82
2022/08/31 10:38:47;;;;;;;2.95;0.38;;;26.10;83.00;;;;;;5074640;28;20040;-80
2022/08/31 10:41:42;;;;;;;3.28;0.52;;;26.20;82.80;;;;;;5091670;28;20140;-80
2022/08/31 10:44:55;;;;;;;1.48;0.50;;;26.20;79.80;;;;;;5061621;28;20056;-88
2022/08/31 10:47:46;;;;;;;3.88;0.57;;;26.40;80.70;;;;;;5073427;28;20044;-82
2022/08/31 10:50:48;;;;;;;1.63;0.50;;;26.50;80.40;;;;;;5093278;28;20086;-80
2022/08/31 10:53:40;;;;;;;1.13;0.40;;;26.50;80.20;;;;;;5093457;28;20048;-83
2022/08/31 10:56:40;;;;;;;2.08;0.57;;;26.40;78.60;;;;;;5100608;28;20480;-86
2022/08/31 10:59:41;;;;;;;2.13;0.40;;;26.60;78.80;;;;;;5080223;28;20055;-89
2022/08/31 11:03:02;;;;;;;2.25;0.50;;;26.90;79.00;;;;;;5090636;28;20954;-84
2022/08/31 11:06:15;;;;;;;3.58;0.43;;;27.10;78.60;;;;;;5080046;28;20522;-85
2022/08/31 11:09:14;;;;;;;1.67;0.40;;;27.30;76.90;;;;;;5075531;28;20048;-83
2022/08/31 11:12:14;;;;;;;2.03;0.30;;;27.20;76.20;;;;;;5074800;28;20109;-80
2022/08/31 11:15:21;;;;;;;2.75;0.80;;;27.40;76.50;;;;;;5077077;28;20495;-85
2022/08/31 11:18:42;;;;;;;3.90;0.50;;;27.50;76.70;;;;;;5089237;28;20074;-80
2022/08/31 11:21:35;;;;;;;2.88;0.52;;;27.60;75.30;;;;;;5072044;28;20082;-79
2022/08/31 11:24:42;;;;;;;3.72;0.40;;;27.70;76.40;;;;;;5090633;28;20051;-83
2022/08/31 11:27:38;;;;;;;2.53;0.63;;;27.80;76.00;;;;;;5074462;28;20056;-82
2022/08/31 11:30:31;;;;;;;7.03;0.73;;;28.10;76.10;;;;;;5077827;28;20561;-83
2022/08/31 11:33:23;;;;;;;1.88;0.60;;;28.40;74.70;;;;;;5089706;28;20048;-82
2022/08/31 11:36:09;;;;;;;3.63;0.70;;;28.60;75.30;;;;;;5090287;28;20052;-81
2022/08/31 11:39:02;;;;;;;3.75;0.60;;;28.40;74.10;;;;;;5091596;28;20044;-81
2022/08/31 11:41:49;;;;;;;2.97;0.70;;;28.70;72.50;;;;;;5089333;28;20056;-82
2022/08/31 11:44:38;;;;;;;3.55;0.60;;;28.80;72.80;;;;;;5094038;28;20055;-80
2022/08/31 11:47:27;;;;;;;2.05;0.50;;;28.90;72.70;;;;;;5076626;28;20051;-85
2022/08/31 11:50:22;;;;;;;4.25;0.63;;;29.10;71.80;;;;;;5089861;28;20537;-81
2022/08/31 11:53:42;;;;;;;2.53;0.40;;;29.30;71.40;;;;;;5087118;28;20064;-84
2022/08/31 11:56:35;;;;;;;2.58;0.47;;;29.60;71.00;;;;;;5058599;28;20043;-82
2022/08/31 11:59:33;;;;;;;2.95;0.52;;;29.80;70.30;;;;;;5089567;28;20047;-80
2022/08/31 12:02:20;;;;;;;2.25;0.50;;;29.90;67.90;;;;;;5086953;28;20147;-79
2022/08/31 12:05:06;;;;;;;1.52;0.70;;;29.80;67.80;;;;;;5090018;28;20044;-80
2022/08/31 12:07:53;;;;;;;2.80;0.50;;;29.80;65.60;;;;;;5089390;28;20048;-81
2022/08/31 12:10:50;;;;;;;2.47;0.40;;;29.80;64.60;;;;;;5090177;28;20556;-85
2022/08/31 12:13:54;;;;;;;1.50;0.52;;;30.00;65.30;;;;;;5088560;28;20441;-80
2022/08/31 12:17:09;;;;;;;3.90;0.52;;;30.20;65.10;;;;;;5091573;28;20059;-86
2022/08/31 12:20:07;;;;;;;3.22;0.45;;;30.00;63.30;;;;;;5090189;28;20400;-86
2022/08/31 12:26:07;;;;;;;3.63;0.65;;;30.20;65.70;;;;;;5089544;28;20067;-82
2022/08/31 12:29:41;;;;;;;2.47;0.50;;;30.40;63.60;;;;;;5089184;28;20105;-83
2022/08/31 12:32:40;;;;;;;4.72;0.60;;;30.50;63.10;;;;;;5089212;28;20055;-81
2022/08/31 12:35:29;;;;;;;3.00;0.70;;;30.90;63.10;;;;;;5094105;28;20179;-84
2022/08/31 12:38:22;;;;;;;1.65;0.50;;;31.50;62.50;;;;;;5094440;28;20162;-79
2022/08/31 12:41:10;;;;;;;4.07;0.50;;;31.40;61.30;;;;;;5080279;28;20071;-88
2022/08/31 12:43:57;;;;;;;4.45;0.50;;;31.40;61.50;;;;;;5098530;28;20379;-91
2022/08/31 12:46:53;;;;;;;3.55;0.80;;;31.70;60.30;;;;;;5096336;28;20135;-92
2022/08/31 12:49:57;;;;;;;2.55;0.60;;;32.20;59.70;;;;;;5095765;28;20127;-92
2022/08/31 12:53:08;;;;;;;4.22;0.70;;;32.70;58.70;;;;;;5095486;28;20050;-82
2022/08/31 12:56:23;;;;;;;3.40;0.50;;;32.70;56.00;;;;;;5076075;28;20052;-85
2022/08/31 12:59:13;;;;;;;;;;;33.10;56.50;;;;;;5073120;28;20059;-79
2022/08/31 13:02:00;;;;;;;1.75;0.47;;;33.50;53.60;;;;;;5094779;28;19935;-81
2022/08/31 13:04:47;;;;;;;2.60;0.52;;;33.70;54.60;;;;;;5092895;28;20047;-90
2022/08/31 13:07:34;;;;;;;2.80;0.50;;;34.30;53.40;;;;;;5072154;28;20118;-82
2022/08/31 13:10:25;;;;;;;3.10;0.45;;;34.40;52.40;;;;;;5078851;28;20054;-89
2022/08/31 13:13:24;;;;;;;2.15;0.40;;;34.60;51.40;;;;;;5091181;28;20426;-80
2022/08/31 13:16:12;;;;;;;6.68;0.50;;;34.80;51.00;;;;;;5098435;28;20044;-82
2022/08/31 13:19:05;;;;;;;3.72;0.40;;;35.30;49.90;;;;;;5095288;28;20048;-82
2022/08/31 13:22:15;;;;;;;2.75;0.43;;;35.40;49.00;;;;;;5096090;28;20044;-81
2022/08/31 13:25:24;;;;;;;3.42;0.40;;;35.70;48.70;;;;;;5066292;28;20048;-80
2022/08/31 13:28:11;;;;;;;1.95;0.43;;;36.20;48.20;;;;;;5099194;28;20189;-82
2022/08/31 13:31:01;;;;;;;3.33;0.60;;;36.40;48.10;;;;;;5097532;28;20044;-87
2022/08/31 13:33:48;;;;;;;3.85;0.90;;;36.60;48.00;;;;;;5111881;28;20032;-86
2022/08/31 13:36:39;;;;;;;3.35;0.52;;;36.50;47.30;;;;;;5108861;28;20564;-82
2022/08/31 13:39:28;;;;;;;4.10;0.70;;;37.00;47.50;;;;;;5095711;28;20052;-78
2022/08/31 13:42:31;;;;;;;3.47;0.63;;;37.20;47.20;;;;;;5075785;28;20044;-78
2022/08/31 13:45:25;;;;;;;6.22;0.63;;;37.30;47.20;;;;;;5061351;28;20106;-83
2022/08/31 13:48:19;;;;;;;;;;;37.20;46.70;;;;;;5075772;28;20055;-85
2022/08/31 13:51:11;;;;;;;2.92;0.55;;;37.40;46.20;;;;;;5092748;28;19924;-84
2022/08/31 13:54:02;;;;;;;3.10;0.47;;;37.80;45.90;;;;;;5075066;28;20059;-81
2022/08/31 13:56:54;;;;;;;4.45;0.63;;;37.80;45.90;;;;;;5075905;28;20048;-81
2022/08/31 13:59:41;;;;;;;2.33;0.35;;;38.10;45.80;;;;;;5075467;28;20048;-83
2022/08/31 14:02:29;;;;;;;3.45;0.50;;;37.90;45.40;;;;;;5092960;28;20276;-82
2022/08/31 14:05:36;;;;;;;5.85;0.63;;;37.80;45.40;;;;;;5092907;28;20052;-82
2022/08/31 14:08:25;;;;;;;2.47;0.60;;;37.40;45.40;;;;;;5092575;28;20048;-80
2022/08/31 14:11:14;;;;;;;2.42;0.63;;;38.00;45.20;;;;;;5091213;28;20052;-83
2022/08/31 14:14:05;;;;;;;6.88;1.60;;;38.30;44.90;;;;;;5092348;28;20044;-80
2022/08/31 14:16:56;;;;;;;5.32;0.77;;;38.40;44.90;;;;;;5090837;28;20040;-80
2022/08/31 14:19:44;;;;;;;3.35;0.70;;;38.30;43.90;;;;;;5091577;28;20108;-80
2022/08/31 14:22:34;;;;;;;2.97;0.90;;;38.60;44.00;;;;;;5090227;28;20456;-81
2022/08/31 14:25:20;;;;;;;4.05;0.68;;;38.20;45.10;;;;;;5091732;28;20052;-81
2022/08/31 14:28:07;;;;;;;3.13;0.75;;;38.60;44.40;;;;;;5091652;28;20052;-81
2022/08/31 14:30:54;;;;;;;2.80;0.52;;;38.70;43.70;;;;;;5091571;28;20186;-89
2022/08/31 14:33:42;;;;;;;3.35;0.80;;;38.70;43.30;;;;;;5092013;28;20055;-87
2022/08/31 14:36:51;;;;;;;4.57;0.80;;;38.30;43.00;;;;;;5092591;28;20052;-82
2022/08/31 14:39:47;;;;;;;3.35;0.70;;;38.30;44.10;;;;;;5092896;28;20442;-80
2022/08/31 14:42:36;;;;;;;2.95;0.60;;;38.60;43.00;;;;;;5091320;28;20044;-82
2022/08/31 14:45:23;;;;;;;2.33;0.52;;;38.60;43.40;;;;;;5093632;28;20052;-80
2022/08/31 14:48:15;;;;;;;2.67;0.45;;;38.70;43.70;;;;;;5092501;28;20083;-81
2022/08/31 14:51:07;;;;;;;3.20;0.68;;;38.50;43.00;;;;;;5099320;28;20044;-88
2022/08/31 14:53:55;;;;;;;4.18;0.40;;;38.60;42.60;;;;;;5092435;28;20517;-83
2022/08/31 14:56:49;;;;;;;3.80;0.60;;;38.50;42.10;;;;;;5112389;28;20403;-89
2022/08/31 14:59:39;;;;;;;4.53;0.80;;;38.90;42.30;;;;;;5114765;28;20063;-82
2022/08/31 15:02:32;;;;;;;4.85;0.77;;;38.60;42.30;;;;;;5096246;28;20150;-81
2022/08/31 15:05:23;;;;;;;2.72;0.70;;;38.50;42.30;;;;;;5112547;28;20678;-81
2022/08/31 15:08:09;;;;;;;3.75;0.50;;;38.30;42.00;;;;;;5097025;28;20050;-84